Time;durP1;ratioP1;P1;durP2;ratioP2;P2;SDS_P1;SDS_P2;PMS_P1;PMS_P2;Temp;Humidity;BMP_temperature;BMP_pressure;BME280_temperature;BME280_humidity;BME280_pressure;Samples;Min_cycle;Max_cycle;Signal;HPM_P1;HPM_P2
2023/01/06 00:07:35;;;;;;;3.42;2.47;;;;;;;16.38;74.86;101246.56;20320190;29;20074;-85
2023/01/06 00:17:37;;;;;;;4.10;2.60;;;;;;;16.38;74.85;101242.06;20286123;29;20060;-84
2023/01/06 00:27:38;;;;;;;6.85;2.85;;;;;;;16.04;74.79;101180.16;20319157;29;20059;-86
2023/01/06 00:37:40;;;;;;;4.13;2.38;;;;;;;16.38;74.80;101220.56;20317847;29;20755;-86
2023/01/06 00:47:41;;;;;;;4.13;2.40;;;;;;;16.37;74.75;101226.91;20317604;29;20047;-86
2023/01/06 00:57:43;;;;;;;5.03;2.67;;;;;;;16.37;74.93;101234.09;20283162;29;20044;-86
2023/01/06 01:07:46;;;;;;;5.10;2.28;;;;;;;16.38;74.94;101230.44;20283134;29;20048;-86
2023/01/06 01:17:47;;;;;;;3.65;2.30;;;;;;;16.36;74.89;101217.16;20315448;29;20111;-86
2023/01/06 01:27:49;;;;;;;2.95;1.55;;;;;;;16.23;74.83;101189.50;20314284;29;20143;-86
2023/01/06 01:37:51;;;;;;;1.95;1.30;;;;;;;16.27;74.74;101190.13;20296786;29;20119;-85
2023/01/06 01:47:59;;;;;;;2.97;1.73;;;;;;;16.14;74.82;101174.97;20313576;29;20068;-85
2023/01/06 01:58:08;;;;;;;2.35;1.83;;;;;;;16.21;74.72;101178.00;20281258;29;20052;-86
2023/01/06 02:08:27;;;;;;;3.80;1.65;;;;;;;16.36;74.83;101189.41;20292096;29;20048;-86
2023/01/06 02:18:39;;;;;;;2.63;1.20;;;;;;;16.35;74.66;101182.31;20305009;29;20466;-85
2023/01/06 02:29:02;;;;;;;1.40;1.10;;;;;;;16.34;74.80;101170.69;20311491;29;20635;-86
2023/01/06 02:39:16;;;;;;;2.55;1.10;;;;;;;16.35;74.60;101156.31;20309967;29;20059;-85
2023/01/06 02:49:34;;;;;;;1.38;0.98;;;;;;;16.33;74.49;101147.50;20309439;29;20055;-85
2023/01/06 02:59:40;;;;;;;1.75;0.90;;;;;;;15.72;74.27;101034.97;20308677;29;20048;-87
2023/01/06 03:09:42;;;;;;;2.95;1.00;;;;;;;16.33;74.40;101120.63;20291965;29;20048;-85
2023/01/06 03:19:44;;;;;;;1.67;0.90;;;;;;;16.32;74.18;101094.72;20289912;29;20048;-86
2023/01/06 03:29:47;;;;;;;1.27;0.93;;;;;;;16.33;74.17;101088.38;20306360;29;20071;-86
2023/01/06 03:40:00;;;;;;;2.75;0.80;;;;;;;16.33;74.05;101066.06;20275323;29;20048;-86
2023/01/06 03:50:09;;;;;;;1.40;1.02;;;;;;;16.18;74.14;101042.13;20290254;29;20048;-86
2023/01/06 04:00:18;;;;;;;0.98;0.82;;;;;;;16.15;73.88;101010.13;20288392;29;20048;-86
2023/01/06 04:10:28;;;;;;;;;;;;;;;16.31;74.03;101025.03;20289649;29;20048;-86
2023/01/06 04:20:31;;;;;;;2.30;1.30;;;;;;;16.30;73.87;101024.16;20302551;29;20010;-86
2023/01/06 04:30:40;;;;;;;1.92;1.00;;;;;;;16.23;73.72;100991.56;20303871;29;20076;-86
2023/01/06 04:40:42;;;;;;;1.45;1.15;;;;;;;16.22;73.54;100972.88;20318358;29;20135;-86
2023/01/06 04:50:43;;;;;;;2.30;1.15;;;;;;;16.28;73.56;100982.28;20300157;29;20059;-86
2023/01/06 05:00:45;;;;;;;1.95;1.40;;;;;;;16.29;73.28;100968.72;20315619;29;20059;-85
2023/01/06 05:10:46;;;;;;;1.45;1.08;;;;;;;16.18;73.23;100937.38;20315577;29;20056;-86
2023/01/06 05:20:52;;;;;;;2.30;1.10;;;;;;;16.30;73.42;100937.34;20318219;29;20048;-84
2023/01/06 05:31:01;;;;;;;0.93;0.80;;;;;;;16.31;73.71;100929.13;20258711;29;20044;-85
2023/01/06 05:41:03;;;;;;;1.15;0.77;;;;;;;16.37;74.25;100923.28;20284412;29;20063;-85
2023/01/06 05:51:06;;;;;;;3.58;1.10;;;;;;;16.46;79.69;100918.13;20282807;29;20052;-87
2023/01/06 06:01:18;;;;;;;1.45;1.00;;;;;;;16.57;82.64;100912.72;20292473;29;20055;-93
2023/01/06 06:11:21;;;;;;;3.10;1.10;;;;;;;16.63;83.08;100909.53;20273653;29;20409;-93
2023/01/06 06:21:28;;;;;;;2.63;1.48;;;;;;;16.70;82.49;100896.44;20293071;29;20546;-92
2023/01/06 06:31:30;;;;;;;2.75;0.90;;;;;;;16.53;80.69;100852.16;20258529;29;20064;-88
2023/01/06 06:41:31;;;;;;;1.35;0.88;;;;;;;16.56;79.06;100857.25;20267377;29;20063;-91
2023/01/06 06:51:33;;;;;;;4.20;1.00;;;;;;;16.76;77.91;100877.09;20302719;29;20074;-88
2023/01/06 07:01:36;;;;;;;1.15;0.77;;;;;;;16.76;77.32;100873.53;20310680;29;20490;-90
2023/01/06 07:11:38;;;;;;;2.38;1.00;;;;;;;16.76;76.74;100878.91;20278558;29;20056;-90
2023/01/06 07:21:39;;;;;;;2.53;0.85;;;;;;;16.55;76.41;100855.56;20288282;29;20514;-87
2023/01/06 07:31:41;;;;;;;1.33;1.10;;;;;;;16.75;76.01;100912.16;20283027;29;20513;-87
2023/01/06 07:41:42;;;;;;;2.13;1.08;;;;;;;16.76;75.74;100901.28;20268853;29;20139;-86
2023/01/06 07:51:45;;;;;;;1.00;0.80;;;;;;;16.76;75.57;100927.31;20252661;29;20810;-87
2023/01/06 08:01:47;;;;;;;1.50;0.80;;;;;;;16.70;76.90;100930.50;20252737;29;20410;-93
2023/01/06 08:11:48;;;;;;;3.58;1.00;;;;;;;16.74;77.23;100962.41;20283832;29;20070;-92
2023/01/06 08:21:50;;;;;;;1.55;0.90;;;;;;;16.83;77.25;100995.75;20288602;29;20059;-94
2023/01/06 08:31:51;;;;;;;1.75;0.80;;;;;;;16.75;79.72;101022.38;20351007;29;20063;-84
2023/01/06 08:42:06;;;;;;;2.47;1.10;;;;;;;16.77;82.46;101025.78;20325073;29;20055;-87
2023/01/06 08:52:07;;;;;;;2.55;0.95;;;;;;;16.86;81.43;101051.97;20298924;29;20058;-88
2023/01/06 09:02:10;;;;;;;4.35;1.50;;;;;;;16.65;86.70;101049.19;20282949;29;20055;-91
2023/01/06 09:12:12;;;;;;;3.80;0.80;;;;;;;16.99;83.94;101097.53;20297110;29;20079;-93
2023/01/06 09:22:13;;;;;;;2.83;0.90;;;;;;;16.91;88.18;101099.97;20300159;29;20135;-94
2023/01/06 09:32:15;;;;;;;1.92;1.20;;;;;;;17.19;86.57;101171.22;20291821;29;20084;-91
2023/01/06 09:42:26;;;;;;;2.13;1.00;;;;;;;17.23;84.35;101178.09;20293945;29;20055;-91
2023/01/06 09:52:48;;;;;;;2.13;0.75;;;;;;;17.28;82.85;101166.09;20279178;29;20048;-86
2023/01/06 10:02:49;;;;;;;3.25;0.70;;;;;;;17.18;82.67;101168.66;20289834;29;20059;-85
2023/01/06 10:13:25;;;;;;;2.97;0.88;;;;;;;17.26;82.60;101203.88;20272005;29;20056;-84
2023/01/06 10:23:45;;;;;;;2.13;0.95;;;;;;;17.23;82.21;101198.75;20275684;29;20111;-85
2023/01/06 10:33:51;;;;;;;3.47;1.33;;;;;;;17.20;81.49;101226.75;20306737;29;20135;-84
2023/01/06 10:43:53;;;;;;;3.00;0.63;;;;;;;17.12;80.84;101218.44;20288588;29;20478;-85
2023/01/06 10:53:56;;;;;;;2.17;0.47;;;;;;;17.18;80.08;101239.47;20292172;29;20044;-84
2023/01/06 11:04:07;;;;;;;1.45;0.80;;;;;;;17.18;79.48;101225.16;20306555;29;20084;-84
2023/01/06 11:14:15;;;;;;;1.55;0.50;;;;;;;16.92;78.94;101215.50;20296299;29;20209;-84
2023/01/06 11:24:20;;;;;;;3.63;0.80;;;;;;;17.17;78.29;101223.47;20268931;29;20134;-84
2023/01/06 11:34:25;;;;;;;1.75;0.73;;;;;;;17.15;77.89;101218.19;20296293;29;20474;-85
2023/01/06 11:44:33;;;;;;;2.30;0.60;;;;;;;17.12;77.86;101207.69;20276251;29;20167;-85
2023/01/06 11:54:38;;;;;;;1.25;0.50;;;;;;;17.10;77.73;101212.31;20297858;29;20393;-84
2023/01/06 12:04:49;;;;;;;2.17;0.97;;;;;;;17.04;77.47;101194.00;20298543;29;20063;-84
2023/01/06 12:14:50;;;;;;;2.92;0.60;;;;;;;16.89;77.08;101175.41;20302820;29;20474;-85
2023/01/06 12:24:54;;;;;;;2.30;0.70;;;;;;;17.06;76.99;101210.88;20302515;29;20048;-85
2023/01/06 12:34:59;;;;;;;1.77;0.55;;;;;;;16.89;76.73;101180.78;20286002;29;20112;-85
2023/01/06 12:45:09;;;;;;;1.77;0.53;;;;;;;16.78;76.36;101178.06;20317508;29;20062;-84
2023/01/06 12:55:50;;;;;;;0.98;0.40;;;;;;;16.85;76.31;101216.97;20315977;29;20115;-84
2023/01/06 13:06:36;;;;;;;3.75;0.80;;;;;;;16.92;76.02;101237.00;20237990;29;20079;-85
2023/01/06 13:16:57;;;;;;;1.25;0.50;;;;;;;17.02;75.59;101242.56;20236873;29;20056;-84
2023/01/06 13:27:17;;;;;;;1.77;0.70;;;;;;;17.02;75.40;101261.38;20219870;29;20053;-84
2023/01/06 13:37:31;;;;;;;1.98;0.60;;;;;;;17.01;75.07;101251.56;20236503;29;20420;-85
2023/01/06 13:47:34;;;;;;;2.60;0.88;;;;;;;16.96;74.68;101238.47;20234105;29;20052;-84
2023/01/06 13:57:38;;;;;;;2.10;0.68;;;;;;;17.02;74.51;101249.75;20266169;29;20123;-84
2023/01/06 14:07:40;;;;;;;2.45;0.85;;;;;;;16.83;74.29;101216.22;20296985;29;20072;-84
2023/01/06 14:17:43;;;;;;;1.85;0.60;;;;;;;16.93;74.19;101241.41;20295520;29;20166;-85
2023/01/06 14:27:44;;;;;;;1.77;0.65;;;;;;;16.99;73.63;101269.66;20311007;29;20348;-84
2023/01/06 14:37:53;;;;;;;3.08;0.68;;;;;;;16.97;73.59;101271.59;20310984;29;20066;-85
2023/01/06 14:48:05;;;;;;;2.20;0.65;;;;;;;16.94;73.48;101264.63;20294829;29;20091;-85
2023/01/06 14:58:37;;;;;;;1.58;0.60;;;;;;;16.84;73.14;101252.91;20293360;29;20103;-84
2023/01/06 15:08:39;;;;;;;2.03;0.70;;;;;;;16.96;72.92;101278.81;20309704;29;20055;-85
2023/01/06 15:18:42;;;;;;;3.17;0.63;;;;;;;16.96;72.69;101268.06;20306573;29;20060;-85
2023/01/06 15:29:04;;;;;;;1.15;0.40;;;;;;;16.95;72.50;101277.09;20306205;29;20047;-85
2023/01/06 15:39:10;;;;;;;2.63;0.70;;;;;;;16.96;72.37;101286.00;20322115;29;20058;-85
2023/01/06 15:49:23;;;;;;;3.17;0.95;;;;;;;16.85;71.99;101276.13;20321874;29;20048;-85
2023/01/06 15:59:25;;;;;;;3.45;0.77;;;;;;;16.73;71.71;101256.41;20296527;29;20055;-84
2023/01/06 16:09:35;;;;;;;1.60;0.50;;;;;;;16.86;71.46;101258.13;20310471;29;20394;-85
2023/01/06 16:19:43;;;;;;;1.10;0.45;;;;;;;16.92;71.68;101277.34;20282873;29;20048;-85
2023/01/06 16:29:44;;;;;;;1.13;0.52;;;;;;;16.89;71.17;101277.59;20276672;29;20112;-87
2023/01/06 16:39:46;;;;;;;2.70;0.68;;;;;;;16.61;70.62;101255.53;20294847;29;20096;-90
2023/01/06 16:49:47;;;;;;;1.95;0.60;;;;;;;16.73;70.63;101294.06;20310487;29;20080;-94
2023/01/06 16:59:49;;;;;;;2.00;0.80;;;;;;;16.76;70.28;101282.19;20268792;29;20063;-89
2023/01/06 17:09:50;;;;;;;2.58;0.73;;;;;;;16.72;70.14;101275.34;20268648;29;20058;-87
2023/01/06 17:19:53;;;;;;;1.35;0.60;;;;;;;16.67;69.94;101287.31;20221220;29;20100;-86
2023/01/06 17:30:00;;;;;;;1.48;0.77;;;;;;;16.66;69.59;101288.28;20250728;29;20063;-86
2023/01/06 17:40:03;;;;;;;1.90;0.60;;;;;;;16.43;69.40;101263.19;20230260;29;20549;-88
2023/01/06 17:50:27;;;;;;;2.88;0.98;;;;;;;16.61;69.28;101309.28;20240533;29;20130;-88
2023/01/06 18:00:33;;;;;;;2.47;0.82;;;;;;;16.27;69.22;101247.38;20241705;29;20052;-84
2023/01/06 18:10:37;;;;;;;2.53;0.77;;;;;;;16.58;69.19;101289.88;20221699;29;20059;-84
2023/01/06 18:20:39;;;;;;;1.83;0.68;;;;;;;16.56;69.10;101289.97;20213635;29;20055;-85
2023/01/06 18:30:40;;;;;;;1.98;0.63;;;;;;;16.57;70.43;101289.00;20267098;29;20095;-90
2023/01/06 18:40:44;;;;;;;2.80;0.73;;;;;;;16.70;71.51;101283.53;20322537;29;20048;-94
2023/01/06 18:50:47;;;;;;;1.95;0.80;;;;;;;16.78;71.40;101286.50;20307969;29;20056;-88
2023/01/06 19:00:54;;;;;;;1.52;0.80;;;;;;;16.76;70.35;101272.31;20324931;29;20040;-88
2023/01/06 19:10:56;;;;;;;3.65;1.38;;;;;;;16.71;69.92;101289.75;20293222;29;20059;-88
2023/01/06 19:21:00;;;;;;;0.98;0.70;;;;;;;16.65;69.59;101281.19;20323825;29;20051;-87
2023/01/06 19:31:03;;;;;;;2.63;0.90;;;;;;;16.61;69.06;101287.78;20306718;29;20131;-87
2023/01/06 19:41:22;;;;;;;2.28;1.15;;;;;;;16.58;68.90;101258.47;20306152;29;20502;-87
2023/01/06 19:51:28;;;;;;;2.28;0.95;;;;;;;16.56;68.62;101255.03;20321693;29;20132;-87
2023/01/06 20:01:31;;;;;;;2.30;1.23;;;;;;;16.55;68.69;101241.72;20303892;29;20060;-87
2023/01/06 20:11:32;;;;;;;0.85;0.73;;;;;;;16.52;68.38;101248.19;20303177;29;20060;-87
2023/01/06 20:21:36;;;;;;;2.17;0.77;;;;;;;16.42;68.46;101236.44;20319638;29;20056;-87
2023/01/06 20:31:37;;;;;;;1.52;1.00;;;;;;;16.50;68.13;101228.66;20318632;29;20052;-87
2023/01/06 20:41:39;;;;;;;2.85;1.25;;;;;;;16.48;67.89;101230.59;20317408;29;20051;-87
2023/01/06 20:51:41;;;;;;;2.28;0.90;;;;;;;16.48;67.76;101249.41;20317527;29;20055;-88
2023/01/06 21:01:43;;;;;;;1.73;1.17;;;;;;;16.45;68.12;101233.53;20315441;29;20048;-88
2023/01/06 21:11:44;;;;;;;2.50;1.10;;;;;;;16.31;67.89;101192.44;20297981;29;20152;-87
2023/01/06 21:21:47;;;;;;;2.15;1.30;;;;;;;16.37;67.97;101197.34;20298299;29;20052;-87
2023/01/06 21:31:48;;;;;;;2.67;1.65;;;;;;;16.45;67.82;101193.22;20314503;29;20548;-88
2023/01/06 21:52:13;;;;;;;2.88;1.75;;;;;;;16.45;67.84;101212.03;20313461;29;20099;-87
2023/01/06 22:02:14;;;;;;;3.28;2.40;;;;;;;16.26;67.99;101189.25;20295622;29;20068;-87
2023/01/06 22:12:17;;;;;;;2.50;1.90;;;;;;;16.20;67.99;101173.59;20295172;29;20056;-87
2023/01/06 22:22:21;;;;;;;4.80;2.22;;;;;;;16.42;68.15;101213.09;20318556;29;20415;-87
2023/01/06 22:32:22;;;;;;;2.20;1.85;;;;;;;15.59;68.58;101061.88;20327649;29;20537;-87
2023/01/06 22:42:24;;;;;;;2.15;1.92;;;;;;;16.42;68.51;101198.81;20326248;29;20510;-87
2023/01/06 22:52:25;;;;;;;3.45;2.40;;;;;;;16.42;68.86;101191.59;20308889;29;20059;-87
2023/01/06 23:02:27;;;;;;;2.63;2.03;;;;;;;16.42;69.09;101193.44;20324496;29;20415;-87
2023/01/06 23:12:28;;;;;;;2.42;2.10;;;;;;;16.43;69.20;101195.16;20307595;29;20453;-87
2023/01/06 23:22:31;;;;;;;2.88;1.63;;;;;;;16.19;69.53;101142.34;20323695;29;20048;-88
2023/01/06 23:32:33;;;;;;;2.47;2.03;;;;;;;16.41;69.44;101170.25;20306423;29;20111;-87
2023/01/06 23:42:34;;;;;;;2.20;1.90;;;;;;;16.42;70.07;101150.47;20321881;29;20103;-87
2023/01/06 23:52:48;;;;;;;2.28;1.70;;;;;;;16.43;70.11;101141.41;20321407;29;20052;-86
